createdAt,value
2022-08-30T00:01:02.226Z,18.86
2022-08-30T00:06:26.864Z,18.69
2022-08-30T00:11:52.145Z,18.79
2022-08-30T00:17:16.751Z,18.84
2022-08-30T00:22:40.096Z,18.86
2022-08-30T00:28:03.763Z,18.77
2022-08-30T00:33:28.423Z,18.68
2022-08-30T00:38:51.627Z,18.79
2022-08-30T00:44:14.790Z,18.73
2022-08-30T00:49:41.602Z,18.69
2022-08-30T00:55:05.867Z,18.64
2022-08-30T01:00:29.142Z,18.56
2022-08-30T01:05:54.272Z,18.41
2022-08-30T01:11:20.198Z,18.47
2022-08-30T01:16:44.956Z,18.39
2022-08-30T01:22:19.832Z,18.35
2022-08-30T01:27:47.419Z,18.34
2022-08-30T01:33:12.569Z,18.22
2022-08-30T01:38:36.692Z,18.19
2022-08-30T01:44:02.902Z,18.09
2022-08-30T01:49:27.666Z,17.95
2022-08-30T01:54:51.214Z,17.92
2022-08-30T02:00:18.007Z,17.84
2022-08-30T02:05:41.301Z,17.63
2022-08-30T02:11:06.646Z,17.69
2022-08-30T02:16:31.601Z,17.69
2022-08-30T02:21:54.861Z,17.65
2022-08-30T02:27:18.372Z,17.63
2022-08-30T02:32:43.140Z,17.57
2022-08-30T02:38:06.513Z,17.56
2022-08-30T02:43:29.836Z,17.54
2022-08-30T02:48:54.561Z,17.45
2022-08-30T02:54:20.148Z,17.40
2022-08-30T02:59:45.368Z,17.39
2022-08-30T03:05:13.052Z,17.30
2022-08-30T03:10:38.400Z,17.31
2022-08-30T03:16:01.694Z,17.30
2022-08-30T03:21:26.295Z,17.22
2022-08-30T03:26:49.577Z,17.14
2022-08-30T03:32:12.799Z,17.04
2022-08-30T03:37:37.657Z,16.98
2022-08-30T03:43:01.050Z,17.08
2022-08-30T03:48:26.142Z,17.04
2022-08-30T03:53:50.848Z,17.03
2022-08-30T03:59:14.051Z,16.98
2022-08-30T04:04:37.283Z,16.96
2022-08-30T04:10:01.909Z,16.95
2022-08-30T04:15:25.222Z,16.93
2022-08-30T04:20:48.538Z,16.85
2022-08-30T04:26:13.183Z,16.96
2022-08-30T04:31:36.425Z,16.87
2022-08-30T04:36:59.679Z,16.91
2022-08-30T04:42:24.836Z,17.04
2022-08-30T04:47:48.515Z,17.09
2022-08-30T04:53:11.756Z,17.14
2022-08-30T04:58:36.417Z,17.22
2022-08-30T05:04:00.300Z,17.25
2022-08-30T05:09:23.990Z,17.25
2022-08-30T05:14:48.685Z,17.13
2022-08-30T05:20:13.012Z,17.34
2022-08-30T05:25:39.859Z,17.39
2022-08-30T05:31:04.836Z,17.30
2022-08-30T05:36:38.583Z,17.44
2022-08-30T05:42:01.861Z,17.48
2022-08-30T05:47:26.517Z,17.56
2022-08-30T05:52:49.725Z,17.55
2022-08-30T05:58:12.901Z,17.57
2022-08-30T06:03:37.508Z,17.73
2022-08-30T06:09:00.932Z,17.83
2022-08-30T06:14:26.021Z,17.93
2022-08-30T06:19:50.655Z,17.47
2022-08-30T06:25:16.272Z,18.04
2022-08-30T06:30:41.232Z,18.04
2022-08-30T06:36:06.948Z,18.00
2022-08-30T06:41:32.663Z,18.14
2022-08-30T06:46:56.060Z,18.18
2022-08-30T06:52:20.738Z,18.29
2022-08-30T06:57:44.815Z,18.44
2022-08-30T07:03:08.634Z,19.10
2022-08-30T07:08:33.322Z,19.59
2022-08-30T07:13:56.889Z,20.15
2022-08-30T07:19:20.897Z,20.86
2022-08-30T07:24:46.332Z,20.97
2022-08-30T07:30:10.636Z,21.36
2022-08-30T07:35:33.838Z,21.44
2022-08-30T07:40:59.184Z,21.34
2022-08-30T07:46:23.354Z,21.66
2022-08-30T07:51:48.184Z,21.28
2022-08-30T07:57:12.890Z,21.22
2022-08-30T08:02:40.817Z,21.46
2022-08-30T08:08:04.384Z,21.75
2022-08-30T08:13:32.768Z,21.81
2022-08-30T08:19:00.078Z,21.70
2022-08-30T08:24:23.320Z,21.65
2022-08-30T08:29:47.907Z,21.51
2022-08-30T08:35:11.539Z,21.41
2022-08-30T08:40:38.989Z,21.48
2022-08-30T08:46:09.153Z,21.59
2022-08-30T08:51:53.375Z,21.47
2022-08-30T08:57:18.546Z,21.67
2022-08-30T09:02:46.606Z,21.80
2022-08-30T09:08:14.935Z,22.12
2022-08-30T09:13:38.157Z,21.91
2022-08-30T09:19:02.739Z,22.06
2022-08-30T09:24:26.029Z,22.28
2022-08-30T09:35:20.598Z,22.42
2022-08-30T09:40:46.664Z,22.94
2022-08-30T09:46:16.254Z,22.74
2022-08-30T09:51:47.446Z,23.23
2022-08-30T09:57:17.253Z,23.15
2022-08-30T10:03:08.560Z,22.99
2022-08-30T10:08:42.110Z,22.93
2022-08-30T10:14:29.711Z,22.78
2022-08-30T10:20:01.813Z,22.90
2022-08-30T10:25:30.151Z,22.91
2022-08-30T10:30:58.127Z,23.03
2022-08-30T10:36:25.144Z,23.24
2022-08-30T10:41:51.819Z,23.14
2022-08-30T10:47:23.840Z,23.52
2022-08-30T10:52:53.041Z,23.55
2022-08-30T10:58:18.642Z,23.40
2022-08-30T11:04:14.605Z,23.25
2022-08-30T11:10:04.937Z,23.50
2022-08-30T11:15:31.788Z,23.80
2022-08-30T11:20:57.315Z,23.88
2022-08-30T11:26:54.741Z,23.36
2022-08-30T11:32:59.977Z,23.43
2022-08-30T11:38:56.452Z,23.42
2022-08-30T11:44:33.178Z,23.12
2022-08-30T11:50:10.926Z,23.00
2022-08-30T11:55:46.699Z,22.98
2022-08-30T12:01:41.835Z,23.06
2022-08-30T12:07:06.475Z,23.39
2022-08-30T12:12:57.087Z,23.22
2022-08-30T12:18:29.859Z,23.18
2022-08-30T12:23:56.807Z,23.13
2022-08-30T12:29:22.723Z,23.00
2022-08-30T12:34:54.849Z,23.18
2022-08-30T12:40:20.603Z,23.49
2022-08-30T12:45:45.941Z,23.54
2022-08-30T12:51:30.881Z,23.71
2022-08-30T12:57:03.688Z,23.55
2022-08-30T13:02:48.182Z,23.36
2022-08-30T13:08:18.251Z,23.24
2022-08-30T13:13:44.587Z,23.37
2022-08-30T13:19:25.823Z,23.35
2022-08-30T13:24:51.536Z,23.43
2022-08-30T13:30:17.068Z,23.52
2022-08-30T13:35:40.312Z,23.69
2022-08-30T13:41:05.406Z,23.70
2022-08-30T13:46:28.662Z,23.88
2022-08-30T13:52:18.468Z,23.93
2022-08-30T13:57:54.742Z,23.83
2022-08-30T14:03:18.497Z,24.07
2022-08-30T14:08:47.779Z,24.44
2022-08-30T14:14:22.247Z,24.55
2022-08-30T14:19:53.595Z,24.64
2022-08-30T14:25:17.349Z,24.70
2022-08-30T14:30:44.058Z,24.90
2022-08-30T14:36:12.466Z,24.71
2022-08-30T14:41:44.182Z,24.84
2022-08-30T14:47:09.888Z,25.11
2022-08-30T14:52:33.960Z,24.51
2022-08-30T14:57:57.611Z,24.62
2022-08-30T15:03:22.239Z,24.71
2022-08-30T15:08:47.655Z,24.69
2022-08-30T15:14:15.900Z,24.98
2022-08-30T15:19:41.848Z,24.86
2022-08-30T15:25:06.493Z,24.50
2022-08-30T15:30:29.856Z,24.41
2022-08-30T15:35:55.303Z,24.54
2022-08-30T15:41:18.507Z,24.18
2022-08-30T15:46:43.746Z,24.25
2022-08-30T15:52:08.533Z,24.41
2022-08-30T15:57:32.448Z,24.20
2022-08-30T16:02:55.991Z,24.27
2022-08-30T16:08:21.261Z,24.35
2022-08-30T16:13:49.559Z,24.46
2022-08-30T16:19:13.889Z,24.67
2022-08-30T16:24:39.142Z,24.84
2022-08-30T16:30:02.577Z,24.66
2022-08-30T16:35:26.543Z,24.51
2022-08-30T16:40:53.131Z,24.18
2022-08-30T16:46:22.600Z,24.07
2022-08-30T16:51:46.605Z,24.01
2022-08-30T16:57:11.375Z,23.75
2022-08-30T17:02:34.860Z,23.57
2022-08-30T17:07:58.488Z,23.68
2022-08-30T17:13:23.278Z,23.73
2022-08-30T17:18:46.499Z,23.79
2022-08-30T17:24:09.795Z,23.57
2022-08-30T17:29:34.442Z,23.45
2022-08-30T17:34:57.672Z,23.44
2022-08-30T17:40:21.561Z,23.22
2022-08-30T17:45:46.324Z,23.18
2022-08-30T17:51:09.469Z,23.16
2022-08-30T17:56:34.070Z,23.22
2022-08-30T18:02:00.282Z,23.05
2022-08-30T18:07:23.508Z,22.86
2022-08-30T18:12:47.165Z,22.81
2022-08-30T18:18:11.748Z,22.76
2022-08-30T18:23:36.111Z,22.57
2022-08-30T18:28:59.914Z,22.37
2022-08-30T18:34:25.045Z,22.21
2022-08-30T18:39:48.470Z,22.03
2022-08-30T18:45:15.105Z,22.02
2022-08-30T18:50:41.354Z,21.87
2022-08-30T18:56:05.153Z,21.70
2022-08-30T19:01:28.676Z,21.74
2022-08-30T19:06:53.563Z,21.67
2022-08-30T19:12:18.267Z,21.39
2022-08-30T19:17:44.930Z,21.36
2022-08-30T19:23:10.405Z,20.86
2022-08-30T19:28:36.250Z,21.18
2022-08-30T19:33:59.589Z,21.08
2022-08-30T19:39:24.731Z,21.13
2022-08-30T19:44:51.131Z,21.01
2022-08-30T19:50:15.642Z,21.09
2022-08-30T19:55:40.358Z,21.13
2022-08-30T20:01:11.803Z,20.92
2022-08-30T20:06:47.739Z,20.93
2022-08-30T20:12:12.376Z,20.91
2022-08-30T20:18:02.005Z,20.91
2022-08-30T20:23:21.698Z,20.79
2022-08-30T20:28:47.948Z,20.63
2022-08-30T20:34:11.222Z,20.49
2022-08-30T20:39:34.551Z,20.41
2022-08-30T20:45:00.198Z,20.16
2022-08-30T20:50:23.583Z,20.19
2022-08-30T20:55:48.582Z,20.10
2022-08-30T21:01:15.840Z,20.19
2022-08-30T21:06:39.212Z,19.82
2022-08-30T21:12:02.368Z,20.06
2022-08-30T21:17:27.439Z,19.91
2022-08-30T21:22:50.616Z,19.90
2022-08-30T21:28:13.972Z,19.78
2022-08-30T21:33:42.489Z,19.85
2022-08-30T21:39:07.233Z,19.86
2022-08-30T21:44:30.383Z,19.73
2022-08-30T21:49:54.976Z,19.94
2022-08-30T21:55:18.401Z,19.68
2022-08-30T22:00:41.659Z,19.60
2022-08-30T22:06:06.999Z,19.55
2022-08-30T22:11:31.586Z,19.71
2022-08-30T22:16:54.898Z,19.65
2022-08-30T22:22:19.659Z,19.53
2022-08-30T22:27:42.863Z,19.57
2022-08-30T22:33:06.050Z,19.58
2022-08-30T22:38:30.631Z,19.48
2022-08-30T22:43:53.971Z,19.50
2022-08-30T22:49:17.146Z,19.43
2022-08-30T22:54:41.683Z,19.40
2022-08-30T23:00:07.635Z,19.16
2022-08-30T23:05:31.075Z,19.28
2022-08-30T23:10:57.894Z,19.13
2022-08-30T23:16:21.535Z,18.95
2022-08-30T23:21:45.344Z,19.14
2022-08-30T23:27:27.676Z,19.10
2022-08-30T23:33:08.318Z,19.22
2022-08-30T23:38:48.940Z,19.31
2022-08-30T23:44:31.057Z,19.22
2022-08-30T23:50:11.728Z,18.99
2022-08-30T23:55:56.646Z,19.23
